createdAt,value
2018-06-08T00:01:38.143Z,21.37
2018-06-08T00:04:06.631Z,21.42
2018-06-08T00:06:35.100Z,21.28
2018-06-08T00:09:04.143Z,21.12
2018-06-08T00:11:32.559Z,21.33
2018-06-08T00:14:01.340Z,21.46
2018-06-08T00:16:29.751Z,21.26
2018-06-08T00:18:58.223Z,21.27
2018-06-08T00:21:26.711Z,21.22
2018-06-08T00:23:55.179Z,21.27
2018-06-08T00:26:23.901Z,21.19
2018-06-08T00:28:52.371Z,21.11
2018-06-08T00:31:20.783Z,21.02
2018-06-08T00:33:49.277Z,21.06
2018-06-08T00:36:17.779Z,20.96
2018-06-08T00:38:46.292Z,20.98
2018-06-08T00:41:14.735Z,20.95
2018-06-08T00:43:43.235Z,21.01
2018-06-08T00:46:11.738Z,20.94
2018-06-08T00:48:40.156Z,21.00
2018-06-08T00:51:08.651Z,20.99
2018-06-08T00:53:37.128Z,20.90
2018-06-08T00:56:05.563Z,21.05
2018-06-08T00:58:34.112Z,21.07
2018-06-08T01:01:02.614Z,20.99
2018-06-08T01:03:31.259Z,21.16
2018-06-08T01:05:59.689Z,21.23
2018-06-08T01:08:28.116Z,21.17
2018-06-08T01:10:56.593Z,21.14
2018-06-08T01:13:25.067Z,21.27
2018-06-08T01:15:53.747Z,21.21
2018-06-08T01:18:22.256Z,21.27
2018-06-08T01:20:50.758Z,21.21
2018-06-08T01:23:19.279Z,21.20
2018-06-08T01:25:47.753Z,21.28
2018-06-08T01:28:16.497Z,21.22
2018-06-08T01:30:45.022Z,21.27
2018-06-08T01:33:13.546Z,21.31
2018-06-08T01:35:42.039Z,21.32
2018-06-08T01:38:10.512Z,21.08
2018-06-08T01:40:39.055Z,21.14
2018-06-08T01:43:07.595Z,20.97
2018-06-08T01:45:36.107Z,20.93
2018-06-08T01:48:04.647Z,20.98
2018-06-08T01:50:33.275Z,21.07
2018-06-08T01:53:02.059Z,21.02
2018-06-08T01:55:30.589Z,21.02
2018-06-08T01:57:59.094Z,20.99
2018-06-08T02:00:27.598Z,20.90
2018-06-08T02:02:56.059Z,21.00
2018-06-08T02:05:24.607Z,21.02
2018-06-08T02:07:53.040Z,20.74
2018-06-08T02:10:21.719Z,20.66
2018-06-08T02:12:50.264Z,20.83
2018-06-08T02:15:18.728Z,20.84
2018-06-08T02:17:47.183Z,21.00
2018-06-08T02:20:15.658Z,20.83
2018-06-08T02:22:44.291Z,20.75
2018-06-08T02:25:12.721Z,20.89
2018-06-08T02:27:41.207Z,20.93
2018-06-08T02:30:09.720Z,20.88
2018-06-08T02:32:38.208Z,20.82
2018-06-08T02:35:07.188Z,21.03
2018-06-08T02:37:35.687Z,20.89
2018-06-08T02:40:04.559Z,20.98
2018-06-08T02:42:33.028Z,20.93
2018-06-08T02:45:01.603Z,20.92
2018-06-08T02:47:30.252Z,20.89
2018-06-08T02:49:58.778Z,20.96
2018-06-08T02:52:27.272Z,20.93
2018-06-08T02:54:55.826Z,20.89
2018-06-08T02:57:24.274Z,20.76
2018-06-08T02:59:53.133Z,20.70
2018-06-08T03:02:21.680Z,20.66
2018-06-08T03:04:50.183Z,20.57
2018-06-08T03:07:18.712Z,20.71
2018-06-08T03:09:47.131Z,20.80
2018-06-08T03:12:15.588Z,20.73
2018-06-08T03:14:44.004Z,20.80
2018-06-08T03:17:12.672Z,21.04
2018-06-08T03:19:41.145Z,20.90
2018-06-08T03:22:09.615Z,20.77
2018-06-08T03:24:38.328Z,20.85
2018-06-08T03:27:06.791Z,20.78
2018-06-08T03:29:35.259Z,20.80
2018-06-08T03:32:03.728Z,20.71
2018-06-08T03:34:32.287Z,20.75
2018-06-08T03:37:00.870Z,20.64
2018-06-08T03:39:29.379Z,20.66
2018-06-08T03:41:57.907Z,20.68
2018-06-08T03:44:26.507Z,20.80
2018-06-08T03:46:55.095Z,20.90
2018-06-08T03:49:23.749Z,21.14
2018-06-08T03:51:52.267Z,21.31
2018-06-08T03:54:20.712Z,21.11
2018-06-08T03:56:49.403Z,20.59
2018-06-08T03:59:18.497Z,20.42
2018-06-08T04:01:47.223Z,20.11
2018-06-08T04:04:15.754Z,20.43
2018-06-08T04:06:44.253Z,20.87
2018-06-08T04:09:12.697Z,20.19
2018-06-08T04:11:41.115Z,20.22
2018-06-08T04:14:10.003Z,20.34
2018-06-08T04:16:38.563Z,20.49
2018-06-08T04:19:07.066Z,20.49
2018-06-08T04:21:35.570Z,20.55
2018-06-08T04:24:04.128Z,20.53
2018-06-08T04:26:32.631Z,20.49
2018-06-08T04:29:01.111Z,20.70
2018-06-08T04:31:29.580Z,20.69
2018-06-08T04:33:58.137Z,20.70
2018-06-08T04:36:26.675Z,20.74
2018-06-08T04:38:55.387Z,20.86
2018-06-08T04:41:23.883Z,20.70
2018-06-08T04:43:52.379Z,20.70
2018-06-08T04:46:20.900Z,20.86
2018-06-08T04:48:49.493Z,20.81
2018-06-08T04:51:18.532Z,20.95
2018-06-08T04:53:47.054Z,21.31
2018-06-08T04:56:15.691Z,21.66
2018-06-08T04:58:44.192Z,21.74
2018-06-08T05:01:12.704Z,21.52
2018-06-08T05:03:41.523Z,21.76
2018-06-08T05:06:10.037Z,21.59
2018-06-08T05:08:38.559Z,21.29
2018-06-08T05:11:07.015Z,21.33
2018-06-08T05:13:35.427Z,21.00
2018-06-08T05:16:03.943Z,21.22
2018-06-08T05:18:32.450Z,21.41
2018-06-08T05:21:00.923Z,21.64
2018-06-08T05:23:29.418Z,21.53
2018-06-08T05:25:57.904Z,21.24
2018-06-08T05:28:26.477Z,21.61
2018-06-08T05:30:55.019Z,21.51
2018-06-08T05:33:23.478Z,21.78
2018-06-08T05:35:51.923Z,21.73
2018-06-08T05:38:20.492Z,21.92
2018-06-08T05:40:48.935Z,21.82
2018-06-08T05:43:17.587Z,21.82
2018-06-08T05:45:46.091Z,22.02
2018-06-08T05:48:14.598Z,22.02
2018-06-08T05:50:43.021Z,22.06
2018-06-08T05:53:11.547Z,21.86
2018-06-08T05:55:39.984Z,21.59
2018-06-08T05:58:08.551Z,21.94
2018-06-08T06:00:37.015Z,21.63
2018-06-08T06:03:05.875Z,21.72
2018-06-08T06:05:34.420Z,21.54
2018-06-08T06:08:02.899Z,21.73
2018-06-08T06:10:31.387Z,21.72
2018-06-08T06:12:59.931Z,21.88
2018-06-08T06:15:28.447Z,21.79
2018-06-08T06:17:56.874Z,22.24
2018-06-08T06:20:25.396Z,22.05
2018-06-08T06:22:53.867Z,21.82
2018-06-08T06:25:22.359Z,22.36
2018-06-08T06:27:50.932Z,22.29
2018-06-08T06:30:19.440Z,22.24
2018-06-08T06:32:47.952Z,22.68
2018-06-08T06:35:16.429Z,22.69
2018-06-08T06:37:44.964Z,22.73
2018-06-08T06:40:13.703Z,22.84
2018-06-08T06:42:42.263Z,22.47
2018-06-08T06:45:10.755Z,22.51
2018-06-08T06:47:39.231Z,22.62
2018-06-08T06:50:07.729Z,22.89
2018-06-08T06:52:36.382Z,22.94
2018-06-08T06:55:04.975Z,22.63
2018-06-08T06:57:33.490Z,22.52
2018-06-08T07:00:02.556Z,23.01
2018-06-08T07:02:31.365Z,23.13
2018-06-08T07:04:59.817Z,22.71
2018-06-08T07:07:28.294Z,23.08
2018-06-08T07:09:56.886Z,22.93
2018-06-08T07:12:25.465Z,22.75
2018-06-08T07:14:54.003Z,22.79
2018-06-08T07:17:22.478Z,22.89
2018-06-08T07:19:50.934Z,23.31
2018-06-08T07:22:21.131Z,23.08
2018-06-08T07:24:49.784Z,23.24
2018-06-08T07:27:18.423Z,23.04
2018-06-08T07:29:46.900Z,23.04
2018-06-08T07:32:15.404Z,23.43
2018-06-08T07:34:44.047Z,23.37
2018-06-08T07:37:12.602Z,23.23
2018-06-08T07:39:41.031Z,23.50
2018-06-08T07:42:09.586Z,23.31
2018-06-08T07:44:38.027Z,23.66
2018-06-08T07:47:06.616Z,23.59
2018-06-08T07:49:35.148Z,24.05
2018-06-08T07:52:03.643Z,23.46
2018-06-08T07:54:32.251Z,24.10
2018-06-08T07:57:02.396Z,24.03
2018-06-08T07:59:31.923Z,24.11
2018-06-08T08:02:00.389Z,24.53
2018-06-08T08:04:28.890Z,24.11
2018-06-08T08:06:57.387Z,24.98
2018-06-08T08:09:25.899Z,24.46
2018-06-08T08:11:54.755Z,25.23
2018-06-08T08:14:23.199Z,24.91
2018-06-08T08:16:51.721Z,25.15
2018-06-08T08:19:20.359Z,25.24
2018-06-08T08:21:48.963Z,25.71
2018-06-08T08:24:17.720Z,25.99
2018-06-08T08:26:46.194Z,25.32
2018-06-08T08:29:14.660Z,25.26
2018-06-08T08:31:43.127Z,25.21
2018-06-08T08:34:11.640Z,25.37
2018-06-08T08:36:40.394Z,25.28
2018-06-08T08:39:09.547Z,25.26
2018-06-08T08:41:38.044Z,25.75
2018-06-08T08:44:06.763Z,25.61
2018-06-08T08:46:35.222Z,25.25
2018-06-08T08:49:03.748Z,25.28
2018-06-08T08:51:32.330Z,25.31
2018-06-08T08:54:00.815Z,25.31
2018-06-08T08:56:29.248Z,25.55
2018-06-08T08:58:57.806Z,25.49
2018-06-08T09:01:26.655Z,25.19
2018-06-08T09:03:55.211Z,25.63
2018-06-08T09:06:23.688Z,26.03
2018-06-08T09:08:52.247Z,26.09
2018-06-08T09:11:20.787Z,25.47
2018-06-08T09:13:49.559Z,26.31
2018-06-08T09:16:18.054Z,25.51
2018-06-08T09:18:46.619Z,26.05
2018-06-08T09:21:15.075Z,25.57
2018-06-08T09:23:43.559Z,26.14
2018-06-08T09:26:12.210Z,26.25
2018-06-08T09:28:40.620Z,26.05
2018-06-08T09:31:09.132Z,26.56
2018-06-08T09:33:37.659Z,26.45
2018-06-08T09:36:06.260Z,26.65
2018-06-08T09:38:34.742Z,26.84
2018-06-08T09:41:03.243Z,26.41
2018-06-08T09:43:31.735Z,26.09
2018-06-08T09:46:00.220Z,25.79
2018-06-08T09:48:28.688Z,27.14
2018-06-08T09:50:57.359Z,25.96
2018-06-08T09:53:25.885Z,26.36
2018-06-08T09:55:54.376Z,26.46
2018-06-08T09:58:22.909Z,26.61
2018-06-08T10:00:51.472Z,26.82
2018-06-08T10:03:20.031Z,26.65
2018-06-08T10:05:48.579Z,26.98
2018-06-08T10:08:17.007Z,26.25
2018-06-08T10:10:45.579Z,26.29
2018-06-08T10:13:14.047Z,26.37
2018-06-08T10:15:42.563Z,26.88
2018-06-08T10:18:11.027Z,27.22
2018-06-08T10:20:39.531Z,27.33
2018-06-08T10:23:08.075Z,27.12
2018-06-08T10:25:36.508Z,27.05
2018-06-08T10:28:05.291Z,27.24
2018-06-08T10:30:33.800Z,27.38
2018-06-08T10:33:02.308Z,27.01
2018-06-08T10:35:30.803Z,26.77
2018-06-08T10:37:59.279Z,27.13
2018-06-08T10:40:27.951Z,27.18
2018-06-08T10:42:56.480Z,27.81
2018-06-08T10:45:25.013Z,27.25
2018-06-08T10:47:53.490Z,27.76
2018-06-08T10:50:21.979Z,27.93
2018-06-08T10:52:50.447Z,27.59
2018-06-08T10:55:18.964Z,28.10
2018-06-08T10:57:47.557Z,27.72
2018-06-08T11:00:16.067Z,27.32
2018-06-08T11:02:44.532Z,27.41
2018-06-08T11:05:13.454Z,27.36
2018-06-08T11:07:41.983Z,27.60
2018-06-08T11:10:10.423Z,27.35
2018-06-08T11:12:38.932Z,27.65
2018-06-08T11:15:07.428Z,27.81
2018-06-08T11:17:35.934Z,27.61
2018-06-08T11:20:04.538Z,27.80
2018-06-08T11:22:33.212Z,27.67
2018-06-08T11:25:01.719Z,27.45
2018-06-08T11:27:30.136Z,27.48
2018-06-08T11:29:58.595Z,27.86
2018-06-08T11:32:27.075Z,28.58
2018-06-08T11:34:55.586Z,28.32
2018-06-08T11:37:24.032Z,28.68
2018-06-08T11:39:52.603Z,28.46
2018-06-08T11:42:21.336Z,28.31
2018-06-08T11:44:49.838Z,28.03
2018-06-08T11:47:18.272Z,28.18
2018-06-08T11:49:46.755Z,27.84
2018-06-08T11:52:15.215Z,27.42
2018-06-08T11:54:43.952Z,28.14
2018-06-08T11:57:12.432Z,27.38
2018-06-08T11:59:40.871Z,28.28
2018-06-08T12:02:09.424Z,28.03
2018-06-08T12:04:37.912Z,27.80
2018-06-08T12:07:06.774Z,28.10
2018-06-08T12:09:35.323Z,28.56
2018-06-08T12:12:03.795Z,28.86
2018-06-08T12:14:32.314Z,29.00
2018-06-08T12:17:00.798Z,28.96
2018-06-08T12:19:29.303Z,28.14
2018-06-08T12:21:57.999Z,28.08
2018-06-08T12:24:26.494Z,28.11
2018-06-08T12:26:54.999Z,27.89
2018-06-08T12:29:23.562Z,27.88
2018-06-08T12:31:52.255Z,27.80
2018-06-08T12:34:20.751Z,28.17
2018-06-08T12:36:49.345Z,28.19
2018-06-08T12:39:17.872Z,28.60
2018-06-08T12:41:46.295Z,28.48
2018-06-08T12:44:14.938Z,28.42
2018-06-08T12:46:43.419Z,28.18
2018-06-08T12:49:11.868Z,27.99
2018-06-08T12:51:40.365Z,27.81
2018-06-08T12:54:08.839Z,27.92
2018-06-08T12:56:37.339Z,28.08
2018-06-08T12:59:05.815Z,28.24
2018-06-08T13:01:34.247Z,28.13
2018-06-08T13:04:05.485Z,28.37
2018-06-08T13:06:35.397Z,28.62
2018-06-08T13:09:06.651Z,28.73
2018-06-08T13:11:53.975Z,29.34
2018-06-08T13:14:29.395Z,29.10
2018-06-08T13:17:03.126Z,28.99
2018-06-08T13:19:32.537Z,29.03
2018-06-08T13:22:03.113Z,28.81
2018-06-08T13:24:32.838Z,29.16
2018-06-08T13:27:02.966Z,29.20
2018-06-08T13:29:33.044Z,28.99
2018-06-08T13:32:04.470Z,28.92
2018-06-08T13:34:35.947Z,28.83
2018-06-08T13:37:06.791Z,29.26
2018-06-08T13:43:04.190Z,28.92
2018-06-08T13:45:35.132Z,29.02
2018-06-08T13:48:06.880Z,29.25
2018-06-08T13:50:36.702Z,28.92
2018-06-08T13:53:10.193Z,28.64
2018-06-08T13:55:40.916Z,28.69
2018-06-08T13:58:11.049Z,28.62
2018-06-08T14:00:41.198Z,28.74
2018-06-08T14:03:10.947Z,28.61
2018-06-08T14:05:41.364Z,28.23
2018-06-08T14:08:14.331Z,28.56
2018-06-08T14:10:43.844Z,28.61
2018-06-08T14:13:12.802Z,28.69
2018-06-08T14:15:43.172Z,29.21
2018-06-08T14:18:12.349Z,29.00
2018-06-08T14:20:42.130Z,29.43
2018-06-08T14:23:11.188Z,29.77
2018-06-08T14:25:40.323Z,29.48
2018-06-08T14:28:10.130Z,29.20
2018-06-08T14:31:35.026Z,29.15
2018-06-08T14:34:10.565Z,29.08
2018-06-08T14:36:40.794Z,29.02
2018-06-08T14:39:10.146Z,28.92
2018-06-08T14:41:40.486Z,28.88
2018-06-08T14:44:10.906Z,28.72
2018-06-08T14:46:40.880Z,28.66
2018-06-08T14:49:11.075Z,28.91
2018-06-08T14:51:42.158Z,28.75
2018-06-08T14:54:12.997Z,28.43
2018-06-08T14:56:42.124Z,28.45
2018-06-08T14:59:12.668Z,28.47
2018-06-08T15:01:42.339Z,28.88
2018-06-08T15:04:11.816Z,28.89
2018-06-08T15:06:40.817Z,28.88
2018-06-08T15:09:09.997Z,28.96
2018-06-08T15:11:39.080Z,29.07
2018-06-08T15:14:52.718Z,29.05
2018-06-08T15:17:33.257Z,28.74
2018-06-08T15:20:05.875Z,28.96
2018-06-08T15:22:35.743Z,28.62
2018-06-08T15:25:05.843Z,28.87
2018-06-08T15:27:36.210Z,28.83
2018-06-08T15:30:19.288Z,28.35
2018-06-08T15:32:50.330Z,28.04
2018-06-08T15:35:20.318Z,28.21
2018-06-08T15:38:01.054Z,27.77
2018-06-08T15:40:35.448Z,27.70
2018-06-08T15:43:10.755Z,27.42
2018-06-08T15:45:42.107Z,27.40
2018-06-08T15:48:12.118Z,27.50
2018-06-08T15:50:42.958Z,27.48
2018-06-08T15:56:03.754Z,27.10
2018-06-08T15:58:36.644Z,27.15
2018-06-08T16:01:11.059Z,26.96
2018-06-08T16:06:23.415Z,26.81
2018-06-08T16:08:59.914Z,26.76
2018-06-08T16:11:29.101Z,26.75
2018-06-08T16:14:01.670Z,26.66
2018-06-08T16:16:35.018Z,26.89
2018-06-08T16:19:05.300Z,26.79
2018-06-08T16:21:35.964Z,26.81
2018-06-08T16:24:06.497Z,26.84
2018-06-08T16:26:40.712Z,26.83
2018-06-08T16:29:10.445Z,26.47
2018-06-08T16:31:41.064Z,26.66
2018-06-08T16:39:12.175Z,26.52
2018-06-08T16:41:41.585Z,26.66
2018-06-08T16:44:29.622Z,26.76
2018-06-08T16:47:11.969Z,26.67
2018-06-08T16:50:04.027Z,26.79
2018-06-08T16:52:34.201Z,26.70
2018-06-08T16:55:21.798Z,26.80
2018-06-08T16:58:03.309Z,26.73
2018-06-08T17:04:00.170Z,26.91
2018-06-08T17:06:33.540Z,26.76
2018-06-08T17:09:07.456Z,26.86
2018-06-08T17:11:37.303Z,26.73
2018-06-08T17:14:06.925Z,26.80
2018-06-08T17:16:37.422Z,26.87
2018-06-08T17:19:07.061Z,26.93
2018-06-08T17:21:59.764Z,26.81
2018-06-08T17:24:34.994Z,26.70
2018-06-08T17:27:07.007Z,26.65
2018-06-08T17:29:37.066Z,26.65
2018-06-08T17:32:07.740Z,26.27
2018-06-08T17:34:38.326Z,26.49
2018-06-08T17:37:38.736Z,26.41
2018-06-08T17:40:08.140Z,26.43
2018-06-08T17:42:38.948Z,26.12
2018-06-08T17:45:08.876Z,26.14
2018-06-08T17:47:39.886Z,26.20
2018-06-08T17:50:09.343Z,26.14
2018-06-08T17:52:39.158Z,26.08
2018-06-08T17:55:08.878Z,26.02
2018-06-08T17:57:59.998Z,26.24
2018-06-08T18:00:32.311Z,26.49
2018-06-08T18:03:05.799Z,26.49
2018-06-08T18:05:36.459Z,26.32
2018-06-08T18:08:11.557Z,26.12
2018-06-08T18:11:00.280Z,26.29
2018-06-08T18:13:33.885Z,26.04
2018-06-08T18:16:07.031Z,26.11
2018-06-08T19:25:31.756Z,25.33
2018-06-08T19:28:04.956Z,25.04
2018-06-08T19:30:36.487Z,25.12
2018-06-08T19:33:06.517Z,25.03
2018-06-08T19:35:37.048Z,25.18
2018-06-08T19:38:09.130Z,25.53
2018-06-08T19:40:38.923Z,25.57
2018-06-08T19:44:02.557Z,25.67
2018-06-08T19:46:34.086Z,25.65
2018-06-08T19:49:04.384Z,25.36
2018-06-08T19:51:35.196Z,24.98
2018-06-08T19:54:04.772Z,25.19
2018-06-08T19:56:34.295Z,25.16
2018-06-08T19:59:04.819Z,24.85
2018-06-08T20:01:34.964Z,24.98
2018-06-08T20:04:04.659Z,24.78
2018-06-08T20:06:34.944Z,24.63
2018-06-08T20:09:05.868Z,24.35
2018-06-08T20:11:35.755Z,24.59
2018-06-08T20:14:11.255Z,24.06
2018-06-08T20:19:30.880Z,23.71
2018-06-08T20:22:03.135Z,23.67
2018-06-08T20:24:33.025Z,23.66
2018-06-08T20:27:04.599Z,23.73
2018-06-08T20:29:36.858Z,23.60
2018-06-08T20:32:06.087Z,23.89
2018-06-08T20:34:35.411Z,23.67
2018-06-08T20:37:04.721Z,23.72
2018-06-08T20:39:34.250Z,23.55
2018-06-08T20:42:04.357Z,23.41
2018-06-08T20:44:36.377Z,23.43
2018-06-08T20:47:06.864Z,23.47
2018-06-08T20:49:37.589Z,23.47
2018-06-08T20:52:08.073Z,24.06
2018-06-08T20:54:37.305Z,23.87
2018-06-08T20:57:36.138Z,24.03
2018-06-08T21:00:05.866Z,24.04
2018-06-08T21:02:35.021Z,24.00
2018-06-08T21:05:04.377Z,24.03
2018-06-08T21:07:36.011Z,23.84
2018-06-08T21:10:06.743Z,23.91
2018-06-08T21:12:36.885Z,23.75
2018-06-08T21:15:06.154Z,23.38
2018-06-08T21:17:35.313Z,23.47
2018-06-08T21:23:04.260Z,23.41
2018-06-08T21:25:34.530Z,23.41
2018-06-08T21:28:04.133Z,23.31
2018-06-08T21:30:34.266Z,23.08
2018-06-08T21:33:06.602Z,23.09
2018-06-08T21:35:37.400Z,23.07
2018-06-08T21:38:07.432Z,23.12
2018-06-08T21:40:36.661Z,23.14
2018-06-08T21:43:07.294Z,23.10
2018-06-08T21:45:37.915Z,23.07
2018-06-08T21:48:07.997Z,23.27
2018-06-08T21:50:37.302Z,23.51
2018-06-08T21:53:08.399Z,23.49
2018-06-08T21:55:38.078Z,23.48
2018-06-08T21:58:08.681Z,22.77
2018-06-08T22:00:38.643Z,23.24
2018-06-08T22:03:07.904Z,22.63
2018-06-08T22:05:38.700Z,22.90
2018-06-08T22:08:09.647Z,22.83
2018-06-08T22:10:40.700Z,22.83
2018-06-08T22:13:11.575Z,23.09
2018-06-08T22:15:42.829Z,22.64
2018-06-08T22:21:03.107Z,22.81
2018-06-08T22:23:34.666Z,22.53
2018-06-08T22:26:05.831Z,22.37
2018-06-08T22:28:39.460Z,22.12
2018-06-08T22:31:10.919Z,22.10
2018-06-08T22:33:40.333Z,22.18
2018-06-08T22:36:10.050Z,22.00
2018-06-08T22:38:39.182Z,22.04
2018-06-08T22:41:10.038Z,21.81
2018-06-08T22:43:40.794Z,22.32
2018-06-08T22:46:10.732Z,22.39
2018-06-08T22:48:40.784Z,22.29
2018-06-08T22:51:10.504Z,22.55
2018-06-08T22:53:41.538Z,22.36
2018-06-08T22:56:12.393Z,21.97
2018-06-08T22:58:42.203Z,22.08
2018-06-08T23:01:14.084Z,21.86
2018-06-08T23:03:43.297Z,22.05
2018-06-08T23:06:12.823Z,21.77
2018-06-08T23:08:42.454Z,21.66
2018-06-08T23:11:12.705Z,21.83
2018-06-08T23:13:42.077Z,21.61
2018-06-08T23:16:11.691Z,21.59
2018-06-08T23:18:41.105Z,21.49
2018-06-08T23:21:10.568Z,21.60
2018-06-08T23:23:40.299Z,22.12
2018-06-08T23:26:10.082Z,22.20
2018-06-08T23:28:39.607Z,22.29
2018-06-08T23:31:09.127Z,22.31
2018-06-08T23:33:38.779Z,22.71
2018-06-08T23:36:08.352Z,22.79
2018-06-08T23:38:38.605Z,21.96
2018-06-08T23:41:10.028Z,22.49
2018-06-08T23:43:39.480Z,22.12
2018-06-08T23:46:09.162Z,22.06
2018-06-08T23:48:39.133Z,22.11
2018-06-08T23:51:08.972Z,21.89
2018-06-08T23:53:38.789Z,22.26
2018-06-08T23:56:08.288Z,22.11
2018-06-08T23:58:37.668Z,22.33
